TAF Text Data
IDs:
Format:
Raw Decoded Include METAR

Data at: 0614 UTC 24 Jan 2019

KDRO 240553Z AUTO 08003KT 10SM BKN065 M11/M13 A3007 RMK AO2 SLP254 T11061133 11033 21128 55001

KDRO 240539Z 2406/2506 01005KT P6SM FEW070
  FM241100 34006KT P6SM FEW250
  FM241800 27008KT P6SM FEW250
  FM250100 27008KT P6SM FEW250
  FM250300 30005KT P6SM SKC